Pagrindinis puslapis
METAR-TAF:

METAR-TAF

Oro uostai :

Roskildė, Danija

platuma: 55-35N, ilguma: 012-08E, Aukštis: 44 m

Dabartinis oras

Ataskaita buvo paskelbta 34 minutes, ne 13:50 UTC
Vėjas 2 kt iš Rytų/Šiaurės Rytų
Temperatūra 9°C
Drėgmė 43%
Slėgis 1009 hPa
Matomumas 10 km arba daugiau

METAR: EKRK 171350Z AUTO 07002KT 9999 FEW057/// OVC073/// 09/M03 Q1009

Laikas: 16:24 (14:24 UTC)

Prognozė

Ataskaita buvo paskelbta 2 valandos ir 58 minutes, ne 11:26 UTC
Prognozė galioja nuo 17 metu 12 UTC su 17 metu 21 UTC
Vėjas 6 kt iš Šiaurės/Šiaurės Rytų
Matomumas 10 km arba daugiau
Išsisklaidę debesys ne aukštis 3000 ft
Laikinai
nuo 17 metu 12 UTC su 17 metu 20 UTC
Mažai debesys ne aukštis 3000 ft, Liūtiniai kamuoliniai debesys.

TAF: EKRK 171126Z 1712/1721 03006KT 9999 SCT030 TEMPO 1712/1720 FEW030CB

Orai ataskaitas ir orų prognozės (METAR, TAF).

turimą stotys yra geltonos ir raudonos taškus žemėlapyje.

Perkelti pele per norėdami pamatyti stoties vardą.

Tada spustelėkite, norėdami matyti oro stebėjimo ir prognozės.

Norėdami pakeisti žemėlapį: spustelėkite ant žalios mygtukų su juodo kryžiaus žemyn,; žalią mygtuką su brūkšneliu, jei norite nutolinti; arba žalių rodyklių gretimoms žemėlapius.


METAR-TAF: